Airfield :
LOGIN :

Register | Disclaimer

   EN    FR    IT 

 










Legend :    VFR   Marginal VFR   IFR   Intensive IFR   Very Intensive IFR
Visi :
Ceiling :
>= 8 km
>= 3000ft
5 to 8 km
1000 to 3000 ft
1500m to 5 km
500 to 1000 ft
800 to 1500m
200 to 500 ft
< 800m
< 200 ft
Symbols :   Thunderstorms  Fog  Heavy snow  Heavy precipitations  Wind > 20 kt
SIGMETs :     Misc.  Thunderstorms  Icing  Turbulence  Mountain Waves  Volcanic Ashes






- Airport Elevation : 1674 ft
- IATA code : BRN


LSZB - Bern Belp

CURRENT METAR :
  • 022220Z AUTO VRB02KT 9999 OVC045 17/15 Q1018

EXPIRED METARs :
  • 022150Z AUTO VRB03KT 9999 -RA SCT044 SCT055 BKN075 17/14 Q1017 REDZ
  • 022120Z AUTO 28005KT 9999 BKN060 18/13 Q1017 REDZ
  • 022050Z AUTO VRB02KT 9999 FEW047 BKN055 BKN065 19/13 Q1017 RERA
  • 022020Z AUTO VRB02KT 9999 SCT048 SCT055 BKN065 18/14 Q1017
  • 021950Z AUTO 28003KT 9999 SCT046 BKN060 BKN095 19/13 Q1017

TAF TAF LSZB
Valid from the 02 at 15:00 until the 03 at 00:00 UTC


021425Z 0215/0224 31008KT 9999 SCT050
PROB30
TEMPO 0215/0218 SHRA SCT050TCU
ATIS : +41 22 417 40 76



MET'MAP, your aeronautical weather chart ! - Copyright ORBIFLY December 2007 - Disclaimer

ORBIFLY MET'MAP TEAM :

Programming & Development : Alexandra Zaïnal
Concept & original design : Baudouin d'Aumeries
Assistance for programming : Marc-Olivier Méhu
Technical & hardware support : Manuel Goepfert

Contact : metmap@orbifly.com




SOURCES & CREDITS :

   NOAA